New Orleans, LA (70116)

11:45 AM CDT on August 30, 2014 (GMT -0500)
Mid City Station | Change Station
CLOSE
Current Station
Personal Weather Station
Location: New Orleans, LA
Elevation: 25 ft
Nearby Weather Stations

Elev 25 ft 29.98 °N, 90.08 °W | Updated 4 seconds ago

Heavy Rain
Heavy Rain Fog
75.0 °F
Feels Like 74 °F
N
0.0
Wind Variable Wind from North
Gusts 0.0 mph

Today
High -- | Low -- °F
--% Chance of Precip.
Yesterday
High -- | Low -- °F
Precip. -- in
6:36 AM 7:25 PM
Waxing Crescent, 23% visible
Pressure 30.05 in
Visibility 0.5 miles
Clouds Mostly Cloudy 1600 ft
Overcast 5500 ft
Heat Index 74 °F
Dew Point 71 °F
Humidity 88%
Rainfall 0.78 in
Snow Depth Not available.
UV 3 out of 12
Pollen 5.40 out of 12
Ozone Good
PM2.5 Good
Flu Activity Not available.
SPECI KNEW 301634Z 17019G38KT 1/2SM +RA FG BKN016 OVC055 25/23 A3005 RMK AO2 PK WND 21053/1618 WSHFT 1616 P0154 T02500228

More Conditions Fewer Conditions

Pressure 30.05 in
Visibility 0.5 miles
Clouds Mostly Cloudy 1600 ft
Overcast 5500 ft
Heat Index 74 °F
Dew Point 71 °F
Humidity 88%
Rainfall 0.78 in
Snow Depth Not available.
UV 3 out of 12
Pollen 5.40 out of 12
Ozone Good
PM2.5 Good
Flu Activity Not available.
SPECI KNEW 301634Z 17019G38KT 1/2SM +RA FG BKN016 OVC055 25/23 A3005 RMK AO2 PK WND 21053/1618 WSHFT 1616 P0154 T02500228

More Conditions Fewer Conditions

10-Day Weather Forecast

Almanac

Astronomy

Aug. 30, 2014 Rise Set
Actual Time 6:36 AM CDT 7:25 PM CDT
Civil Twilight 6:11 AM CDT 7:49 PM CDT
Nautical Twilight 5:42 AM CDT 8:18 PM CDT
Astronomical Twilight 5:13 AM CDT 8:47 PM CDT
Moon 11:00 AM CDT 10:23 PM CDT
Length of Visible Light 13h 37m
Length of Day
12h 48m
Tomorrow will be 1m 43s shorter.
Waxing Crescent, 23% of the Moon is Illuminated
Today
Waxing Crescent
Sep 2
First Quarter
Sep 8
Full
Sep 15
Last Quarter
Sep 24
New

Today's Extremes

State Highs State Lows

Community

WunderPhotos

Upload Photos

1,748,562 photos uploaded!

WunderBlogs® & News

Nearby

Air Quality

  Air Quality AQ Index Pollutant
Yesterday Good
OZONE
Yesterday Good
PM2.5
Current Good
PM2.5
Current Good
OZONE
Saturday Good
PM2.5
Saturday Good
OZONE
Sunday Good
PM2.5
Sunday Good
OZONE

Snow Depth

Station Depth Elevation
No new snow has been reported.

Earthquake Activity

City Distance Mag. Time & Date
No recent earthquake activity has been reported nearby.
Minimum magnitude displayed is 2.5.

Coastal Water Temperatures

Place Temperature
New Canal, LA 82.0 °F
Shell Beach, LA 81.0 °F
Bayou Gauche, LA 82.9 °F

Nearby Weather Stations